sensor_id;sensor_type;location;lat;lon;timestamp;P1;durP1;ratioP1;P2;durP2;ratioP2
52838;SDS011;39219;53.678;9.856;2023-08-08T00:00:46;7.32;;;2.92;;
52838;SDS011;39219;53.678;9.856;2023-08-08T00:03:13;6.63;;;2.72;;
52838;SDS011;39219;53.678;9.856;2023-08-08T00:05:39;10.32;;;3.15;;
52838;SDS011;39219;53.678;9.856;2023-08-08T00:08:07;7.88;;;3.00;;
52838;SDS011;39219;53.678;9.856;2023-08-08T00:10:33;9.68;;;3.10;;
52838;SDS011;39219;53.678;9.856;2023-08-08T00:12:59;7.07;;;2.83;;
52838;SDS011;39219;53.678;9.856;2023-08-08T00:15:26;9.52;;;3.05;;
52838;SDS011;39219;53.678;9.856;2023-08-08T00:17:52;7.43;;;2.75;;
52838;SDS011;39219;53.678;9.856;2023-08-08T00:20:18;7.65;;;3.13;;
52838;SDS011;39219;53.678;9.856;2023-08-08T00:22:44;8.98;;;3.03;;
52838;SDS011;39219;53.678;9.856;2023-08-08T00:25:12;10.00;;;3.17;;
52838;SDS011;39219;53.678;9.856;2023-08-08T00:27:38;8.32;;;2.83;;
52838;SDS011;39219;53.678;9.856;2023-08-08T00:30:09;6.28;;;2.92;;
52838;SDS011;39219;53.678;9.856;2023-08-08T00:32:35;7.70;;;2.92;;
52838;SDS011;39219;53.678;9.856;2023-08-08T00:35:02;5.68;;;3.00;;
52838;SDS011;39219;53.678;9.856;2023-08-08T00:37:28;8.20;;;3.40;;
52838;SDS011;39219;53.678;9.856;2023-08-08T00:39:54;9.02;;;3.30;;
52838;SDS011;39219;53.678;9.856;2023-08-08T00:42:22;9.60;;;3.30;;
52838;SDS011;39219;53.678;9.856;2023-08-08T00:44:48;8.13;;;3.53;;
52838;SDS011;39219;53.678;9.856;2023-08-08T00:47:14;7.80;;;3.25;;
52838;SDS011;39219;53.678;9.856;2023-08-08T00:49:41;7.22;;;3.00;;
52838;SDS011;39219;53.678;9.856;2023-08-08T00:52:09;8.23;;;3.13;;
52838;SDS011;39219;53.678;9.856;2023-08-08T00:54:35;7.40;;;3.13;;
52838;SDS011;39219;53.678;9.856;2023-08-08T00:57:02;10.80;;;3.33;;
52838;SDS011;39219;53.678;9.856;2023-08-08T00:59:29;8.50;;;3.50;;
52838;SDS011;39219;53.678;9.856;2023-08-08T01:01:56;9.00;;;3.17;;
52838;SDS011;39219;53.678;9.856;2023-08-08T01:04:22;7.65;;;3.08;;
52838;SDS011;39219;53.678;9.856;2023-08-08T01:06:52;11.43;;;2.97;;
52838;SDS011;39219;53.678;9.856;2023-08-08T01:09:21;5.63;;;2.67;;
52838;SDS011;39219;53.678;9.856;2023-08-08T01:11:49;6.63;;;2.97;;
52838;SDS011;39219;53.678;9.856;2023-08-08T01:14:16;8.10;;;2.95;;
52838;SDS011;39219;53.678;9.856;2023-08-08T01:16:45;5.63;;;2.70;;
52838;SDS011;39219;53.678;9.856;2023-08-08T01:19:11;7.68;;;3.00;;
52838;SDS011;39219;53.678;9.856;2023-08-08T01:21:40;10.75;;;2.70;;
52838;SDS011;39219;53.678;9.856;2023-08-08T01:24:14;5.25;;;2.72;;
52838;SDS011;39219;53.678;9.856;2023-08-08T01:26:41;6.15;;;2.50;;
52838;SDS011;39219;53.678;9.856;2023-08-08T01:29:10;6.88;;;2.88;;
52838;SDS011;39219;53.678;9.856;2023-08-08T01:31:36;5.68;;;2.85;;
52838;SDS011;39219;53.678;9.856;2023-08-08T01:34:02;8.07;;;2.83;;
52838;SDS011;39219;53.678;9.856;2023-08-08T01:36:30;8.23;;;3.22;;
52838;SDS011;39219;53.678;9.856;2023-08-08T01:38:59;12.30;;;3.15;;
52838;SDS011;39219;53.678;9.856;2023-08-08T01:41:30;9.15;;;2.97;;
52838;SDS011;39219;53.678;9.856;2023-08-08T01:43:57;7.20;;;2.83;;
52838;SDS011;39219;53.678;9.856;2023-08-08T01:46:24;6.85;;;2.75;;
52838;SDS011;39219;53.678;9.856;2023-08-08T01:48:50;6.35;;;2.40;;
52838;SDS011;39219;53.678;9.856;2023-08-08T01:51:17;6.65;;;2.72;;
52838;SDS011;39219;53.678;9.856;2023-08-08T01:53:43;7.22;;;2.83;;
52838;SDS011;39219;53.678;9.856;2023-08-08T01:56:09;10.15;;;2.92;;
52838;SDS011;39219;53.678;9.856;2023-08-08T01:58:37;7.15;;;2.88;;
52838;SDS011;39219;53.678;9.856;2023-08-08T02:01:04;9.35;;;3.00;;
52838;SDS011;39219;53.678;9.856;2023-08-08T02:03:31;9.45;;;3.03;;
52838;SDS011;39219;53.678;9.856;2023-08-08T02:05:57;12.07;;;3.05;;
52838;SDS011;39219;53.678;9.856;2023-08-08T02:08:23;11.10;;;2.83;;
52838;SDS011;39219;53.678;9.856;2023-08-08T02:10:49;7.32;;;2.78;;
52838;SDS011;39219;53.678;9.856;2023-08-08T02:13:16;7.53;;;2.40;;
52838;SDS011;39219;53.678;9.856;2023-08-08T02:15:43;8.85;;;2.55;;
52838;SDS011;39219;53.678;9.856;2023-08-08T02:18:10;7.70;;;2.47;;
52838;SDS011;39219;53.678;9.856;2023-08-08T02:20:36;4.38;;;1.90;;
52838;SDS011;39219;53.678;9.856;2023-08-08T02:23:02;7.45;;;2.50;;
52838;SDS011;39219;53.678;9.856;2023-08-08T02:25:29;6.47;;;2.30;;
52838;SDS011;39219;53.678;9.856;2023-08-08T02:27:55;4.95;;;2.60;;
52838;SDS011;39219;53.678;9.856;2023-08-08T02:30:22;7.05;;;2.47;;
52838;SDS011;39219;53.678;9.856;2023-08-08T02:32:49;6.55;;;2.53;;
52838;SDS011;39219;53.678;9.856;2023-08-08T02:35:16;5.95;;;2.65;;
52838;SDS011;39219;53.678;9.856;2023-08-08T02:37:42;6.10;;;2.42;;
52838;SDS011;39219;53.678;9.856;2023-08-08T02:40:08;6.95;;;2.45;;
52838;SDS011;39219;53.678;9.856;2023-08-08T02:42:35;5.18;;;2.10;;
52838;SDS011;39219;53.678;9.856;2023-08-08T02:45:02;6.85;;;2.30;;
52838;SDS011;39219;53.678;9.856;2023-08-08T02:47:28;6.55;;;2.10;;
52838;SDS011;39219;53.678;9.856;2023-08-08T02:49:56;5.10;;;2.47;;
52838;SDS011;39219;53.678;9.856;2023-08-08T02:52:22;4.53;;;2.30;;
52838;SDS011;39219;53.678;9.856;2023-08-08T02:54:48;9.63;;;2.90;;
52838;SDS011;39219;53.678;9.856;2023-08-08T02:57:15;6.57;;;2.17;;
52838;SDS011;39219;53.678;9.856;2023-08-08T02:59:41;6.63;;;2.30;;
52838;SDS011;39219;53.678;9.856;2023-08-08T03:02:07;7.60;;;2.40;;
52838;SDS011;39219;53.678;9.856;2023-08-08T03:04:34;6.80;;;2.10;;
52838;SDS011;39219;53.678;9.856;2023-08-08T03:07:01;4.65;;;2.42;;
52838;SDS011;39219;53.678;9.856;2023-08-08T03:09:29;5.88;;;2.25;;
52838;SDS011;39219;53.678;9.856;2023-08-08T03:11:55;5.38;;;2.20;;
52838;SDS011;39219;53.678;9.856;2023-08-08T03:14:21;8.77;;;2.22;;
52838;SDS011;39219;53.678;9.856;2023-08-08T03:16:47;6.03;;;2.53;;
52838;SDS011;39219;53.678;9.856;2023-08-08T03:19:14;6.38;;;2.40;;
52838;SDS011;39219;53.678;9.856;2023-08-08T03:21:40;7.97;;;2.50;;
52838;SDS011;39219;53.678;9.856;2023-08-08T03:24:08;8.30;;;2.20;;
52838;SDS011;39219;53.678;9.856;2023-08-08T03:26:34;5.45;;;2.45;;
52838;SDS011;39219;53.678;9.856;2023-08-08T03:29:00;8.18;;;2.50;;
52838;SDS011;39219;53.678;9.856;2023-08-08T03:31:26;8.93;;;2.38;;
52838;SDS011;39219;53.678;9.856;2023-08-08T03:33:53;6.22;;;2.28;;
52838;SDS011;39219;53.678;9.856;2023-08-08T03:36:19;5.68;;;2.58;;
52838;SDS011;39219;53.678;9.856;2023-08-08T03:38:45;6.57;;;2.20;;
52838;SDS011;39219;53.678;9.856;2023-08-08T03:41:13;5.88;;;2.28;;
52838;SDS011;39219;53.678;9.856;2023-08-08T03:43:39;5.35;;;2.40;;
52838;SDS011;39219;53.678;9.856;2023-08-08T03:46:06;3.47;;;2.05;;
52838;SDS011;39219;53.678;9.856;2023-08-08T03:48:32;5.97;;;2.60;;
52838;SDS011;39219;53.678;9.856;2023-08-08T03:50:58;6.93;;;2.30;;
52838;SDS011;39219;53.678;9.856;2023-08-08T03:53:24;5.85;;;2.10;;
52838;SDS011;39219;53.678;9.856;2023-08-08T03:55:51;7.65;;;2.75;;
52838;SDS011;39219;53.678;9.856;2023-08-08T03:58:18;6.68;;;2.28;;
52838;SDS011;39219;53.678;9.856;2023-08-08T04:00:45;8.45;;;2.20;;
52838;SDS011;39219;53.678;9.856;2023-08-08T04:03:12;4.90;;;1.92;;
52838;SDS011;39219;53.678;9.856;2023-08-08T04:05:38;6.00;;;2.25;;
52838;SDS011;39219;53.678;9.856;2023-08-08T04:08:05;6.70;;;2.30;;
52838;SDS011;39219;53.678;9.856;2023-08-08T04:10:31;3.58;;;2.10;;
52838;SDS011;39219;53.678;9.856;2023-08-08T04:12:57;5.00;;;2.03;;
52838;SDS011;39219;53.678;9.856;2023-08-08T04:15:25;6.05;;;2.03;;
52838;SDS011;39219;53.678;9.856;2023-08-08T04:17:51;7.07;;;2.08;;
52838;SDS011;39219;53.678;9.856;2023-08-08T04:20:18;4.78;;;2.15;;
52838;SDS011;39219;53.678;9.856;2023-08-08T04:22:44;4.22;;;2.00;;
52838;SDS011;39219;53.678;9.856;2023-08-08T04:25:11;7.03;;;1.92;;
52838;SDS011;39219;53.678;9.856;2023-08-08T04:27:37;4.35;;;1.90;;
52838;SDS011;39219;53.678;9.856;2023-08-08T04:30:04;7.97;;;2.00;;
52838;SDS011;39219;53.678;9.856;2023-08-08T04:32:32;7.03;;;2.10;;
52838;SDS011;39219;53.678;9.856;2023-08-08T04:34:58;6.18;;;2.30;;
52838;SDS011;39219;53.678;9.856;2023-08-08T04:37:24;2.83;;;1.67;;
52838;SDS011;39219;53.678;9.856;2023-08-08T04:39:50;5.55;;;1.80;;
52838;SDS011;39219;53.678;9.856;2023-08-08T04:42:17;5.30;;;1.60;;
52838;SDS011;39219;53.678;9.856;2023-08-08T04:44:43;5.75;;;2.25;;
52838;SDS011;39219;53.678;9.856;2023-08-08T04:47:09;5.72;;;2.13;;
52838;SDS011;39219;53.678;9.856;2023-08-08T04:49:37;3.53;;;1.83;;
52838;SDS011;39219;53.678;9.856;2023-08-08T04:52:03;4.47;;;2.20;;
52838;SDS011;39219;53.678;9.856;2023-08-08T04:54:30;4.55;;;1.60;;
52838;SDS011;39219;53.678;9.856;2023-08-08T04:56:56;4.38;;;1.70;;
52838;SDS011;39219;53.678;9.856;2023-08-08T04:59:23;4.68;;;1.67;;
52838;SDS011;39219;53.678;9.856;2023-08-08T05:01:49;5.20;;;1.90;;
52838;SDS011;39219;53.678;9.856;2023-08-08T05:04:16;3.58;;;1.63;;
52838;SDS011;39219;53.678;9.856;2023-08-08T05:06:44;4.15;;;1.58;;
52838;SDS011;39219;53.678;9.856;2023-08-08T05:09:11;6.13;;;1.92;;
52838;SDS011;39219;53.678;9.856;2023-08-08T05:11:37;6.03;;;1.67;;
52838;SDS011;39219;53.678;9.856;2023-08-08T05:14:03;4.50;;;1.85;;
52838;SDS011;39219;53.678;9.856;2023-08-08T05:16:30;7.32;;;1.60;;
52838;SDS011;39219;53.678;9.856;2023-08-08T05:18:56;4.60;;;1.80;;
52838;SDS011;39219;53.678;9.856;2023-08-08T05:21:22;3.63;;;1.55;;
52838;SDS011;39219;53.678;9.856;2023-08-08T05:23:50;4.20;;;1.95;;
52838;SDS011;39219;53.678;9.856;2023-08-08T05:26:16;5.30;;;2.03;;
52838;SDS011;39219;53.678;9.856;2023-08-08T05:28:43;4.47;;;1.52;;
52838;SDS011;39219;53.678;9.856;2023-08-08T05:31:09;7.32;;;1.92;;
52838;SDS011;39219;53.678;9.856;2023-08-08T05:33:35;5.15;;;1.60;;
52838;SDS011;39219;53.678;9.856;2023-08-08T05:36:02;2.88;;;1.38;;
52838;SDS011;39219;53.678;9.856;2023-08-08T05:38:28;4.85;;;1.70;;
52838;SDS011;39219;53.678;9.856;2023-08-08T05:40:55;4.72;;;1.45;;
52838;SDS011;39219;53.678;9.856;2023-08-08T05:43:22;5.30;;;1.65;;
52838;SDS011;39219;53.678;9.856;2023-08-08T05:45:48;5.88;;;2.05;;
52838;SDS011;39219;53.678;9.856;2023-08-08T05:48:14;7.00;;;1.60;;
52838;SDS011;39219;53.678;9.856;2023-08-08T05:50:41;3.17;;;1.20;;
52838;SDS011;39219;53.678;9.856;2023-08-08T05:53:07;7.57;;;1.70;;
52838;SDS011;39219;53.678;9.856;2023-08-08T05:55:33;4.07;;;1.45;;
52838;SDS011;39219;53.678;9.856;2023-08-08T05:58:01;3.15;;;1.40;;
52838;SDS011;39219;53.678;9.856;2023-08-08T06:00:27;4.10;;;1.15;;
52838;SDS011;39219;53.678;9.856;2023-08-08T06:02:53;2.97;;;1.33;;
52838;SDS011;39219;53.678;9.856;2023-08-08T06:05:20;6.15;;;1.58;;
52838;SDS011;39219;53.678;9.856;2023-08-08T06:07:47;2.15;;;1.30;;
52838;SDS011;39219;53.678;9.856;2023-08-08T06:10:13;2.67;;;1.30;;
52838;SDS011;39219;53.678;9.856;2023-08-08T06:12:40;4.53;;;1.42;;
52838;SDS011;39219;53.678;9.856;2023-08-08T06:15:08;4.35;;;1.20;;
52838;SDS011;39219;53.678;9.856;2023-08-08T06:17:34;2.42;;;1.40;;
52838;SDS011;39219;53.678;9.856;2023-08-08T06:20:01;3.88;;;1.20;;
52838;SDS011;39219;53.678;9.856;2023-08-08T06:22:27;1.83;;;1.05;;
52838;SDS011;39219;53.678;9.856;2023-08-08T06:24:54;3.20;;;1.30;;
52838;SDS011;39219;53.678;9.856;2023-08-08T06:27:20;3.13;;;1.20;;
52838;SDS011;39219;53.678;9.856;2023-08-08T06:29:46;3.88;;;1.58;;
52838;SDS011;39219;53.678;9.856;2023-08-08T06:32:14;2.67;;;1.70;;
52838;SDS011;39219;53.678;9.856;2023-08-08T06:34:40;5.00;;;1.50;;
52838;SDS011;39219;53.678;9.856;2023-08-08T06:37:06;2.78;;;1.50;;
52838;SDS011;39219;53.678;9.856;2023-08-08T06:39:33;3.45;;;1.42;;
52838;SDS011;39219;53.678;9.856;2023-08-08T06:42:00;4.70;;;1.45;;
52838;SDS011;39219;53.678;9.856;2023-08-08T06:44:26;3.22;;;1.60;;
52838;SDS011;39219;53.678;9.856;2023-08-08T06:46:52;3.55;;;1.77;;
52838;SDS011;39219;53.678;9.856;2023-08-08T06:49:20;3.75;;;1.60;;
52838;SDS011;39219;53.678;9.856;2023-08-08T06:51:46;2.90;;;1.63;;
52838;SDS011;39219;53.678;9.856;2023-08-08T06:54:12;5.05;;;1.92;;
52838;SDS011;39219;53.678;9.856;2023-08-08T06:56:39;3.95;;;1.40;;
52838;SDS011;39219;53.678;9.856;2023-08-08T06:59:05;3.63;;;1.40;;
52838;SDS011;39219;53.678;9.856;2023-08-08T07:01:31;5.30;;;1.70;;
52838;SDS011;39219;53.678;9.856;2023-08-08T07:03:59;6.95;;;1.83;;
52838;SDS011;39219;53.678;9.856;2023-08-08T07:06:27;5.28;;;1.55;;
52838;SDS011;39219;53.678;9.856;2023-08-08T07:08:53;4.05;;;1.73;;
52838;SDS011;39219;53.678;9.856;2023-08-08T07:11:19;5.05;;;1.70;;
52838;SDS011;39219;53.678;9.856;2023-08-08T07:13:47;3.60;;;1.58;;
52838;SDS011;39219;53.678;9.856;2023-08-08T07:16:13;3.03;;;1.20;;
52838;SDS011;39219;53.678;9.856;2023-08-08T07:18:39;3.70;;;1.30;;
52838;SDS011;39219;53.678;9.856;2023-08-08T07:21:06;4.75;;;1.45;;
52838;SDS011;39219;53.678;9.856;2023-08-08T07:23:33;2.75;;;1.30;;
52838;SDS011;39219;53.678;9.856;2023-08-08T07:25:59;5.10;;;1.38;;
52838;SDS011;39219;53.678;9.856;2023-08-08T07:28:26;2.58;;;1.20;;
52838;SDS011;39219;53.678;9.856;2023-08-08T07:30:52;4.18;;;1.27;;
52838;SDS011;39219;53.678;9.856;2023-08-08T07:33:18;3.45;;;1.20;;
52838;SDS011;39219;53.678;9.856;2023-08-08T07:35:45;4.47;;;1.35;;
52838;SDS011;39219;53.678;9.856;2023-08-08T07:38:11;5.25;;;1.50;;
52838;SDS011;39219;53.678;9.856;2023-08-08T07:40:38;2.88;;;1.38;;
52838;SDS011;39219;53.678;9.856;2023-08-08T07:43:06;3.65;;;1.33;;
52838;SDS011;39219;53.678;9.856;2023-08-08T07:45:32;5.32;;;1.20;;
52838;SDS011;39219;53.678;9.856;2023-08-08T07:47:58;4.18;;;1.40;;
52838;SDS011;39219;53.678;9.856;2023-08-08T07:50:25;4.93;;;1.30;;
52838;SDS011;39219;53.678;9.856;2023-08-08T07:52:51;4.03;;;1.58;;
52838;SDS011;39219;53.678;9.856;2023-08-08T07:55:17;5.28;;;1.50;;
52838;SDS011;39219;53.678;9.856;2023-08-08T07:57:45;6.07;;;1.80;;
52838;SDS011;39219;53.678;9.856;2023-08-08T08:00:11;4.70;;;1.60;;
52838;SDS011;39219;53.678;9.856;2023-08-08T08:02:38;4.97;;;1.73;;
52838;SDS011;39219;53.678;9.856;2023-08-08T08:05:05;4.97;;;1.77;;
52838;SDS011;39219;53.678;9.856;2023-08-08T08:07:33;5.75;;;1.85;;
52838;SDS011;39219;53.678;9.856;2023-08-08T08:09:59;5.43;;;1.75;;
52838;SDS011;39219;53.678;9.856;2023-08-08T08:12:26;7.65;;;2.33;;
52838;SDS011;39219;53.678;9.856;2023-08-08T08:14:53;6.28;;;2.05;;
52838;SDS011;39219;53.678;9.856;2023-08-08T08:17:19;2.58;;;1.90;;
52838;SDS011;39219;53.678;9.856;2023-08-08T08:19:46;5.13;;;2.00;;
52838;SDS011;39219;53.678;9.856;2023-08-08T08:22:12;6.78;;;1.80;;
52838;SDS011;39219;53.678;9.856;2023-08-08T08:24:38;4.32;;;1.58;;
52838;SDS011;39219;53.678;9.856;2023-08-08T08:27:05;1.98;;;1.45;;
52838;SDS011;39219;53.678;9.856;2023-08-08T08:29:31;4.60;;;1.75;;
52838;SDS011;39219;53.678;9.856;2023-08-08T08:31:59;5.10;;;1.60;;
52838;SDS011;39219;53.678;9.856;2023-08-08T08:34:25;6.70;;;1.77;;
52838;SDS011;39219;53.678;9.856;2023-08-08T08:36:52;5.18;;;2.00;;
52838;SDS011;39219;53.678;9.856;2023-08-08T08:39:18;3.53;;;1.75;;
52838;SDS011;39219;53.678;9.856;2023-08-08T08:41:44;4.30;;;1.58;;
52838;SDS011;39219;53.678;9.856;2023-08-08T08:44:14;4.15;;;1.90;;
52838;SDS011;39219;53.678;9.856;2023-08-08T08:46:40;5.00;;;1.90;;
52838;SDS011;39219;53.678;9.856;2023-08-08T08:49:08;4.13;;;1.60;;
52838;SDS011;39219;53.678;9.856;2023-08-08T08:51:35;3.58;;;1.77;;
52838;SDS011;39219;53.678;9.856;2023-08-08T08:54:01;4.68;;;1.60;;
52838;SDS011;39219;53.678;9.856;2023-08-08T08:56:28;4.97;;;1.70;;
52838;SDS011;39219;53.678;9.856;2023-08-08T08:58:54;2.17;;;1.40;;
52838;SDS011;39219;53.678;9.856;2023-08-08T09:01:20;2.47;;;1.48;;
52838;SDS011;39219;53.678;9.856;2023-08-08T09:03:47;3.53;;;1.50;;
52838;SDS011;39219;53.678;9.856;2023-08-08T09:06:15;4.25;;;1.50;;
52838;SDS011;39219;53.678;9.856;2023-08-08T09:08:44;3.85;;;1.38;;
52838;SDS011;39219;53.678;9.856;2023-08-08T09:11:12;5.07;;;1.85;;
52838;SDS011;39219;53.678;9.856;2023-08-08T09:13:38;3.53;;;1.63;;
52838;SDS011;39219;53.678;9.856;2023-08-08T09:16:04;5.13;;;1.60;;
52838;SDS011;39219;53.678;9.856;2023-08-08T09:18:31;4.65;;;1.77;;
52838;SDS011;39219;53.678;9.856;2023-08-08T09:20:57;7.90;;;1.65;;
52838;SDS011;39219;53.678;9.856;2023-08-08T09:23:25;8.95;;;1.80;;
52838;SDS011;39219;53.678;9.856;2023-08-08T09:25:51;4.40;;;1.30;;
52838;SDS011;39219;53.678;9.856;2023-08-08T09:28:17;7.20;;;2.03;;
52838;SDS011;39219;53.678;9.856;2023-08-08T09:30:44;5.00;;;1.63;;
52838;SDS011;39219;53.678;9.856;2023-08-08T09:33:11;6.65;;;1.40;;
52838;SDS011;39219;53.678;9.856;2023-08-08T09:35:37;3.80;;;1.10;;
52838;SDS011;39219;53.678;9.856;2023-08-08T09:38:04;4.68;;;1.48;;
52838;SDS011;39219;53.678;9.856;2023-08-08T09:40:31;4.50;;;1.30;;
52838;SDS011;39219;53.678;9.856;2023-08-08T09:42:58;4.95;;;1.63;;
52838;SDS011;39219;53.678;9.856;2023-08-08T09:45:24;4.50;;;1.67;;
52838;SDS011;39219;53.678;9.856;2023-08-08T09:47:51;3.15;;;1.42;;
52838;SDS011;39219;53.678;9.856;2023-08-08T09:50:18;4.82;;;1.38;;
52838;SDS011;39219;53.678;9.856;2023-08-08T09:52:45;4.32;;;1.15;;
52838;SDS011;39219;53.678;9.856;2023-08-08T09:55:12;2.53;;;1.33;;
52838;SDS011;39219;53.678;9.856;2023-08-08T09:57:40;4.35;;;1.25;;
52838;SDS011;39219;53.678;9.856;2023-08-08T10:00:07;3.55;;;1.20;;
52838;SDS011;39219;53.678;9.856;2023-08-08T10:02:40;3.28;;;1.30;;
52838;SDS011;39219;53.678;9.856;2023-08-08T10:05:07;3.92;;;1.45;;
52838;SDS011;39219;53.678;9.856;2023-08-08T10:07:33;3.92;;;1.58;;
52838;SDS011;39219;53.678;9.856;2023-08-08T10:10:00;4.00;;;1.42;;
52838;SDS011;39219;53.678;9.856;2023-08-08T10:12:26;5.05;;;1.50;;
52838;SDS011;39219;53.678;9.856;2023-08-08T10:14:54;3.78;;;1.30;;
52838;SDS011;39219;53.678;9.856;2023-08-08T10:17:20;7.15;;;1.83;;
52838;SDS011;39219;53.678;9.856;2023-08-08T10:19:50;4.30;;;1.40;;
52838;SDS011;39219;53.678;9.856;2023-08-08T10:22:19;6.03;;;1.50;;
52838;SDS011;39219;53.678;9.856;2023-08-08T10:24:46;4.50;;;1.50;;
52838;SDS011;39219;53.678;9.856;2023-08-08T10:27:13;5.47;;;1.30;;
52838;SDS011;39219;53.678;9.856;2023-08-08T10:29:40;3.53;;;1.20;;
52838;SDS011;39219;53.678;9.856;2023-08-08T10:32:08;3.20;;;1.23;;
52838;SDS011;39219;53.678;9.856;2023-08-08T10:34:37;5.53;;;1.42;;
52838;SDS011;39219;53.678;9.856;2023-08-08T10:37:04;5.25;;;1.40;;
52838;SDS011;39219;53.678;9.856;2023-08-08T10:39:30;4.63;;;1.83;;
52838;SDS011;39219;53.678;9.856;2023-08-08T10:42:00;4.35;;;1.55;;
52838;SDS011;39219;53.678;9.856;2023-08-08T10:44:29;4.65;;;1.40;;
52838;SDS011;39219;53.678;9.856;2023-08-08T10:46:55;2.67;;;1.40;;
52838;SDS011;39219;53.678;9.856;2023-08-08T10:49:23;4.07;;;1.27;;
52838;SDS011;39219;53.678;9.856;2023-08-08T10:51:50;4.25;;;1.40;;
52838;SDS011;39219;53.678;9.856;2023-08-08T10:54:17;5.60;;;1.40;;
52838;SDS011;39219;53.678;9.856;2023-08-08T10:56:48;5.78;;;1.70;;
52838;SDS011;39219;53.678;9.856;2023-08-08T10:59:15;3.38;;;1.20;;
52838;SDS011;39219;53.678;9.856;2023-08-08T11:01:44;3.47;;;1.42;;
52838;SDS011;39219;53.678;9.856;2023-08-08T11:04:11;3.08;;;1.10;;
52838;SDS011;39219;53.678;9.856;2023-08-08T11:06:39;3.72;;;1.20;;
52838;SDS011;39219;53.678;9.856;2023-08-08T11:09:05;3.08;;;1.25;;
52838;SDS011;39219;53.678;9.856;2023-08-08T11:11:35;1.60;;;1.08;;
52838;SDS011;39219;53.678;9.856;2023-08-08T11:14:08;3.03;;;1.48;;
52838;SDS011;39219;53.678;9.856;2023-08-08T11:16:34;2.88;;;1.20;;
52838;SDS011;39219;53.678;9.856;2023-08-08T11:19:00;2.67;;;1.05;;
52838;SDS011;39219;53.678;9.856;2023-08-08T11:21:27;4.00;;;1.35;;
52838;SDS011;39219;53.678;9.856;2023-08-08T11:23:55;2.15;;;1.02;;
52838;SDS011;39219;53.678;9.856;2023-08-08T11:26:21;2.65;;;1.10;;
52838;SDS011;39219;53.678;9.856;2023-08-08T11:28:49;4.82;;;1.40;;
52838;SDS011;39219;53.678;9.856;2023-08-08T11:31:15;6.45;;;2.03;;
52838;SDS011;39219;53.678;9.856;2023-08-08T11:33:41;4.60;;;1.55;;
52838;SDS011;39219;53.678;9.856;2023-08-08T11:36:08;6.28;;;1.88;;
52838;SDS011;39219;53.678;9.856;2023-08-08T11:38:34;5.53;;;1.50;;
52838;SDS011;39219;53.678;9.856;2023-08-08T11:41:02;4.78;;;1.48;;
52838;SDS011;39219;53.678;9.856;2023-08-08T11:43:28;4.38;;;1.40;;
52838;SDS011;39219;53.678;9.856;2023-08-08T11:45:55;3.30;;;1.25;;
52838;SDS011;39219;53.678;9.856;2023-08-08T11:48:21;5.68;;;1.40;;
52838;SDS011;39219;53.678;9.856;2023-08-08T11:50:47;5.90;;;1.55;;
52838;SDS011;39219;53.678;9.856;2023-08-08T11:53:14;5.82;;;1.23;;
52838;SDS011;39219;53.678;9.856;2023-08-08T11:55:40;4.25;;;1.55;;
52838;SDS011;39219;53.678;9.856;2023-08-08T11:58:11;5.65;;;1.77;;
52838;SDS011;39219;53.678;9.856;2023-08-08T12:00:38;5.97;;;1.58;;
52838;SDS011;39219;53.678;9.856;2023-08-08T12:03:04;5.22;;;1.50;;
52838;SDS011;39219;53.678;9.856;2023-08-08T12:05:35;5.82;;;1.40;;
52838;SDS011;39219;53.678;9.856;2023-08-08T12:08:04;6.97;;;1.67;;
52838;SDS011;39219;53.678;9.856;2023-08-08T12:10:30;4.80;;;1.40;;
52838;SDS011;39219;53.678;9.856;2023-08-08T12:12:57;5.97;;;1.90;;
52838;SDS011;39219;53.678;9.856;2023-08-08T12:15:28;6.60;;;1.40;;
52838;SDS011;39219;53.678;9.856;2023-08-08T12:17:55;7.32;;;1.77;;
52838;SDS011;39219;53.678;9.856;2023-08-08T12:20:23;6.53;;;1.60;;
52838;SDS011;39219;53.678;9.856;2023-08-08T12:22:52;6.45;;;1.70;;
52838;SDS011;39219;53.678;9.856;2023-08-08T12:25:19;4.32;;;1.55;;
52838;SDS011;39219;53.678;9.856;2023-08-08T12:27:45;5.80;;;1.42;;
52838;SDS011;39219;53.678;9.856;2023-08-08T12:30:11;3.72;;;1.20;;
52838;SDS011;39219;53.678;9.856;2023-08-08T12:32:39;7.35;;;1.50;;
52838;SDS011;39219;53.678;9.856;2023-08-08T12:35:05;6.97;;;1.63;;
52838;SDS011;39219;53.678;9.856;2023-08-08T12:37:32;6.13;;;1.80;;
52838;SDS011;39219;53.678;9.856;2023-08-08T12:39:58;7.15;;;1.35;;
52838;SDS011;39219;53.678;9.856;2023-08-08T12:42:25;6.03;;;1.90;;
52838;SDS011;39219;53.678;9.856;2023-08-08T12:44:52;6.70;;;1.70;;
52838;SDS011;39219;53.678;9.856;2023-08-08T12:47:19;7.25;;;1.85;;
52838;SDS011;39219;53.678;9.856;2023-08-08T12:49:47;5.03;;;1.75;;
52838;SDS011;39219;53.678;9.856;2023-08-08T12:52:14;8.05;;;1.95;;
52838;SDS011;39219;53.678;9.856;2023-08-08T12:54:40;5.90;;;1.80;;
52838;SDS011;39219;53.678;9.856;2023-08-08T12:57:06;4.18;;;1.35;;
52838;SDS011;39219;53.678;9.856;2023-08-08T12:59:33;5.90;;;1.40;;
52838;SDS011;39219;53.678;9.856;2023-08-08T13:02:00;4.30;;;1.50;;
52838;SDS011;39219;53.678;9.856;2023-08-08T13:04:26;4.60;;;1.42;;
52838;SDS011;39219;53.678;9.856;2023-08-08T13:06:54;3.35;;;1.23;;
52838;SDS011;39219;53.678;9.856;2023-08-08T13:09:20;7.03;;;1.70;;
52838;SDS011;39219;53.678;9.856;2023-08-08T13:11:46;6.47;;;1.60;;
52838;SDS011;39219;53.678;9.856;2023-08-08T13:14:13;6.03;;;2.22;;
52838;SDS011;39219;53.678;9.856;2023-08-08T13:16:39;7.78;;;2.08;;
52838;SDS011;39219;53.678;9.856;2023-08-08T13:19:05;7.68;;;1.83;;
52838;SDS011;39219;53.678;9.856;2023-08-08T13:21:32;7.63;;;1.73;;
52838;SDS011;39219;53.678;9.856;2023-08-08T13:23:59;6.47;;;1.90;;
52838;SDS011;39219;53.678;9.856;2023-08-08T13:26:26;7.93;;;2.10;;
52838;SDS011;39219;53.678;9.856;2023-08-08T13:28:52;5.82;;;1.98;;
52838;SDS011;39219;53.678;9.856;2023-08-08T13:31:19;6.57;;;2.03;;
52838;SDS011;39219;53.678;9.856;2023-08-08T13:33:45;5.88;;;1.80;;
52838;SDS011;39219;53.678;9.856;2023-08-08T13:36:11;10.65;;;2.00;;
52838;SDS011;39219;53.678;9.856;2023-08-08T13:38:37;6.85;;;1.98;;
52838;SDS011;39219;53.678;9.856;2023-08-08T13:41:06;8.65;;;1.75;;
52838;SDS011;39219;53.678;9.856;2023-08-08T13:43:32;4.03;;;1.40;;
52838;SDS011;39219;53.678;9.856;2023-08-08T13:45:58;7.45;;;1.60;;
52838;SDS011;39219;53.678;9.856;2023-08-08T13:48:25;5.80;;;1.50;;
52838;SDS011;39219;53.678;9.856;2023-08-08T13:50:52;5.30;;;1.75;;
52838;SDS011;39219;53.678;9.856;2023-08-08T13:53:18;7.13;;;1.52;;
52838;SDS011;39219;53.678;9.856;2023-08-08T13:55:45;7.50;;;2.20;;
52838;SDS011;39219;53.678;9.856;2023-08-08T13:58:12;5.50;;;1.45;;
52838;SDS011;39219;53.678;9.856;2023-08-08T14:00:38;7.20;;;1.65;;
52838;SDS011;39219;53.678;9.856;2023-08-08T14:03:05;7.80;;;1.77;;
52838;SDS011;39219;53.678;9.856;2023-08-08T14:05:31;7.07;;;2.03;;
52838;SDS011;39219;53.678;9.856;2023-08-08T14:07:57;6.18;;;1.50;;
52838;SDS011;39219;53.678;9.856;2023-08-08T14:10:24;5.40;;;1.60;;
52838;SDS011;39219;53.678;9.856;2023-08-08T14:12:50;8.20;;;1.70;;
52838;SDS011;39219;53.678;9.856;2023-08-08T14:15:18;8.00;;;1.67;;
52838;SDS011;39219;53.678;9.856;2023-08-08T14:17:44;4.70;;;1.25;;
52838;SDS011;39219;53.678;9.856;2023-08-08T14:20:10;7.72;;;1.70;;
52838;SDS011;39219;53.678;9.856;2023-08-08T14:22:37;6.85;;;1.70;;
52838;SDS011;39219;53.678;9.856;2023-08-08T14:25:03;6.95;;;1.60;;
52838;SDS011;39219;53.678;9.856;2023-08-08T14:27:31;5.88;;;1.60;;
52838;SDS011;39219;53.678;9.856;2023-08-08T14:29:57;9.85;;;1.70;;
52838;SDS011;39219;53.678;9.856;2023-08-08T14:32:25;6.05;;;1.63;;
52838;SDS011;39219;53.678;9.856;2023-08-08T14:34:51;7.03;;;1.90;;
52838;SDS011;39219;53.678;9.856;2023-08-08T14:37:18;5.65;;;1.50;;
52838;SDS011;39219;53.678;9.856;2023-08-08T14:39:44;5.72;;;1.90;;
52838;SDS011;39219;53.678;9.856;2023-08-08T14:42:10;11.35;;;2.00;;
52838;SDS011;39219;53.678;9.856;2023-08-08T14:44:37;6.25;;;1.55;;